📊 Raw Sensor Data
Showing records 34726 to 34750 of 84,864 total
| ID | Distance (ft) | Battery V | Battery A | Int Temp (°F) | Int Humid (%) | Ext Temp (°F) | Solar V | RSSI | SNR | Time Stamp |
|---|---|---|---|---|---|---|---|---|---|---|
| 50151 | 15.4 | 3.74 | -5 | 65 | 46 | 66 | 0.00 | -69 | 9 | 08/24/2025 10:30 PM |
| 50150 | 15.3 | 3.53 | -5 | 66 | 47 | 66 | 0.00 | -70 | 8 | 08/24/2025 10:15 PM |
| 50149 | 15.4 | 3.53 | -5 | 66 | 47 | 66 | 0.00 | -70 | 8 | 08/24/2025 10:00 PM |
| 50148 | 15.4 | 3.74 | -5 | 67 | 48 | 67 | 0.00 | -69 | 8 | 08/24/2025 09:45 PM |
| 50147 | 15.4 | 3.74 | -5 | 67 | 48 | 67 | 0.00 | -69 | 8 | 08/24/2025 09:30 PM |
| 50146 | 15.5 | 3.53 | -5 | 68 | 49 | 68 | 0.00 | -69 | 8 | 08/24/2025 09:15 PM |
| 50145 | 15.4 | 3.75 | -5 | 69 | 50 | 69 | 0.00 | -70 | 8 | 08/24/2025 09:00 PM |
| 50144 | 15.4 | 3.53 | -5 | 71 | 51 | 70 | 0.00 | -69 | 8 | 08/24/2025 08:45 PM |
| 50143 | 15.5 | 3.75 | -5 | 72 | 52 | 71 | 0.00 | -70 | 9 | 08/24/2025 08:30 PM |
| 50142 | 15.5 | 3.53 | -5 | 74 | 53 | 73 | 0.00 | -71 | 8 | 08/24/2025 08:15 PM |
| 50141 | 15.4 | 3.53 | -5 | 76 | 54 | 74 | 0.60 | -70 | 8 | 08/24/2025 08:00 PM |
| 50140 | 15.5 | 3.74 | -7 | 80 | 55 | 76 | 2.10 | -69 | 9 | 08/24/2025 07:45 PM |
| 50139 | 15.4 | 3.78 | 0 | 85 | 54 | 79 | 4.50 | -69 | 8 | 08/24/2025 07:30 PM |
| 50138 | 15.5 | 3.83 | 0 | 88 | 53 | 81 | 4.50 | -70 | 8 | 08/24/2025 07:15 PM |
| 50137 | 15.2 | 3.88 | -9 | 92 | 52 | 85 | 4.60 | -70 | 8 | 08/24/2025 07:00 PM |
| 50136 | 15.6 | 3.81 | 25 | 95 | 51 | 88 | 4.50 | -69 | 8 | 08/24/2025 06:45 PM |
| 50135 | 15.5 | 3.74 | 0 | 97 | 50 | 90 | 5.10 | -69 | 8 | 08/24/2025 06:30 PM |
| 50134 | 15.4 | 3.74 | 0 | 99 | 50 | 90 | 5.10 | -69 | 7 | 08/24/2025 06:15 PM |
| 50133 | 15.5 | 3.74 | 0 | 100 | 49 | 92 | 5.10 | -70 | 8 | 08/24/2025 06:00 PM |
| 50132 | 15.5 | 3.89 | 0 | 100 | 48 | 91 | 5.10 | -71 | 7 | 08/24/2025 05:45 PM |
| 50131 | 15.6 | 3.74 | 0 | 101 | 48 | 92 | 5.10 | -68 | 8 | 08/24/2025 05:30 PM |
| 50130 | 15.7 | 3.74 | 0 | 102 | 47 | 94 | 5.10 | -69 | 8 | 08/24/2025 05:15 PM |
| 50129 | 15.6 | 3.74 | 0 | 102 | 47 | 91 | 5.10 | -70 | 8 | 08/24/2025 05:00 PM |
| 50128 | 15.6 | 3.76 | 0 | 104 | 46 | 91 | 5.10 | -69 | 8 | 08/24/2025 04:45 PM |
| 50127 | 15.6 | 3.75 | 0 | 104 | 46 | 93 | 5.10 | -69 | 8 | 08/24/2025 04:30 PM |